West Jefferson, Ohio
Current Conditions -  °F | °C
As of 9:55 AM on Wednesday 26 Nov 2014 (Local Time) from KTZR Reporting Station
Overcast Overcast  
Wind Chill: -5°   Ceiling: 2800
Heat Index: -1°   Visibility: 10mi
Dew Point: -3°   Wind: 8mph
Humidity: 86%   Direction: 350°N
Pressure: 30.12"   Gusts: NA
Location:  39.94°N, 83.27°W
Report Text: KTZR 261455Z 35007KT 10SM OVC028 M01/M03 A3012
Loading
Personal Weather Stations






























Interactive Weather Map New forecast layout! Learn more

10-Day Weather Forecast

Advertisements
Track Severe Weather on mobile